sensor_id;sensor_type;location;lat;lon;timestamp;P1;durP1;ratioP1;P2;durP2;ratioP2
32964;SDS011;19317;48.226;11.686;2023-03-14T00:00:55;1.83;;;1.73;;
32964;SDS011;19317;48.226;11.686;2023-03-14T00:05:45;2.70;;;1.70;;
32964;SDS011;19317;48.226;11.686;2023-03-14T00:10:36;1.70;;;1.60;;
32964;SDS011;19317;48.226;11.686;2023-03-14T00:15:27;1.70;;;1.60;;
32964;SDS011;19317;48.226;11.686;2023-03-14T00:20:18;1.50;;;1.40;;
32964;SDS011;19317;48.226;11.686;2023-03-14T00:25:09;2.40;;;1.80;;
32964;SDS011;19317;48.226;11.686;2023-03-14T00:30:00;1.70;;;1.60;;
32964;SDS011;19317;48.226;11.686;2023-03-14T00:34:51;1.60;;;1.50;;
32964;SDS011;19317;48.226;11.686;2023-03-14T00:39:41;1.50;;;1.40;;
32964;SDS011;19317;48.226;11.686;2023-03-14T00:44:32;2.47;;;1.53;;
32964;SDS011;19317;48.226;11.686;2023-03-14T00:49:22;1.60;;;1.50;;
32964;SDS011;19317;48.226;11.686;2023-03-14T00:54:13;1.50;;;1.40;;
32964;SDS011;19317;48.226;11.686;2023-03-14T00:59:03;1.40;;;1.30;;
32964;SDS011;19317;48.226;11.686;2023-03-14T01:03:54;1.30;;;1.20;;
32964;SDS011;19317;48.226;11.686;2023-03-14T01:08:45;1.50;;;1.40;;
32964;SDS011;19317;48.226;11.686;2023-03-14T01:13:36;1.60;;;1.50;;
32964;SDS011;19317;48.226;11.686;2023-03-14T01:18:27;1.60;;;1.50;;
32964;SDS011;19317;48.226;11.686;2023-03-14T01:23:18;1.43;;;1.33;;
32964;SDS011;19317;48.226;11.686;2023-03-14T01:28:08;1.60;;;1.50;;
32964;SDS011;19317;48.226;11.686;2023-03-14T01:32:59;1.60;;;1.50;;
32964;SDS011;19317;48.226;11.686;2023-03-14T01:37:49;1.50;;;1.40;;
32964;SDS011;19317;48.226;11.686;2023-03-14T01:42:44;1.70;;;1.60;;
32964;SDS011;19317;48.226;11.686;2023-03-14T01:47:44;1.90;;;1.80;;
32964;SDS011;19317;48.226;11.686;2023-03-14T01:52:36;1.67;;;1.47;;
32964;SDS011;19317;48.226;11.686;2023-03-14T01:57:30;1.60;;;1.50;;
32964;SDS011;19317;48.226;11.686;2023-03-14T02:02:25;3.00;;;1.60;;
32964;SDS011;19317;48.226;11.686;2023-03-14T02:07:37;1.60;;;1.50;;
32964;SDS011;19317;48.226;11.686;2023-03-14T02:12:41;1.63;;;1.53;;
32964;SDS011;19317;48.226;11.686;2023-03-14T02:17:32;1.60;;;1.50;;
32964;SDS011;19317;48.226;11.686;2023-03-14T02:22:22;1.57;;;1.47;;
32964;SDS011;19317;48.226;11.686;2023-03-14T02:27:14;2.30;;;1.60;;
32964;SDS011;19317;48.226;11.686;2023-03-14T02:32:06;1.57;;;1.47;;
32964;SDS011;19317;48.226;11.686;2023-03-14T02:36:57;1.70;;;1.60;;
32964;SDS011;19317;48.226;11.686;2023-03-14T02:41:49;1.87;;;1.77;;
32964;SDS011;19317;48.226;11.686;2023-03-14T02:46:39;1.50;;;1.40;;
32964;SDS011;19317;48.226;11.686;2023-03-14T02:51:30;1.60;;;1.50;;
32964;SDS011;19317;48.226;11.686;2023-03-14T02:56:21;1.77;;;1.67;;
32964;SDS011;19317;48.226;11.686;2023-03-14T03:01:12;1.67;;;1.57;;
32964;SDS011;19317;48.226;11.686;2023-03-14T03:06:02;1.63;;;1.53;;
32964;SDS011;19317;48.226;11.686;2023-03-14T03:10:53;1.70;;;1.60;;
32964;SDS011;19317;48.226;11.686;2023-03-14T03:15:44;2.43;;;1.90;;
32964;SDS011;19317;48.226;11.686;2023-03-14T03:20:35;8.37;;;2.87;;
32964;SDS011;19317;48.226;11.686;2023-03-14T03:25:26;3.93;;;2.20;;
32964;SDS011;19317;48.226;11.686;2023-03-14T03:30:16;5.73;;;3.20;;
32964;SDS011;19317;48.226;11.686;2023-03-14T03:35:07;4.03;;;2.50;;
32964;SDS011;19317;48.226;11.686;2023-03-14T03:39:57;2.03;;;1.83;;
32964;SDS011;19317;48.226;11.686;2023-03-14T03:44:48;1.63;;;1.53;;
32964;SDS011;19317;48.226;11.686;2023-03-14T03:49:38;1.60;;;1.50;;
32964;SDS011;19317;48.226;11.686;2023-03-14T03:54:29;3.10;;;1.60;;
32964;SDS011;19317;48.226;11.686;2023-03-14T03:59:20;1.60;;;1.50;;
32964;SDS011;19317;48.226;11.686;2023-03-14T04:04:10;1.63;;;1.40;;
32964;SDS011;19317;48.226;11.686;2023-03-14T04:09:01;1.70;;;1.60;;
32964;SDS011;19317;48.226;11.686;2023-03-14T04:13:51;1.50;;;1.40;;
32964;SDS011;19317;48.226;11.686;2023-03-14T04:18:42;1.47;;;1.37;;
32964;SDS011;19317;48.226;11.686;2023-03-14T04:23:32;1.60;;;1.40;;
32964;SDS011;19317;48.226;11.686;2023-03-14T04:28:23;1.60;;;1.50;;
32964;SDS011;19317;48.226;11.686;2023-03-14T04:33:13;1.57;;;1.47;;
32964;SDS011;19317;48.226;11.686;2023-03-14T04:38:04;1.60;;;1.50;;
32964;SDS011;19317;48.226;11.686;2023-03-14T04:42:54;1.60;;;1.50;;
32964;SDS011;19317;48.226;11.686;2023-03-14T04:47:45;1.50;;;1.40;;
32964;SDS011;19317;48.226;11.686;2023-03-14T04:52:35;1.50;;;1.40;;
32964;SDS011;19317;48.226;11.686;2023-03-14T04:57:25;1.50;;;1.40;;
32964;SDS011;19317;48.226;11.686;2023-03-14T05:02:16;1.50;;;1.40;;
32964;SDS011;19317;48.226;11.686;2023-03-14T05:07:07;1.60;;;1.50;;
32964;SDS011;19317;48.226;11.686;2023-03-14T05:11:57;1.97;;;1.30;;
32964;SDS011;19317;48.226;11.686;2023-03-14T05:16:48;1.50;;;1.40;;
32964;SDS011;19317;48.226;11.686;2023-03-14T05:21:38;1.60;;;1.50;;
32964;SDS011;19317;48.226;11.686;2023-03-14T05:26:28;1.50;;;1.40;;
32964;SDS011;19317;48.226;11.686;2023-03-14T05:31:19;1.60;;;1.50;;
32964;SDS011;19317;48.226;11.686;2023-03-14T05:36:10;1.40;;;1.30;;
32964;SDS011;19317;48.226;11.686;2023-03-14T05:41:00;1.50;;;1.40;;
32964;SDS011;19317;48.226;11.686;2023-03-14T05:45:51;1.40;;;1.30;;
32964;SDS011;19317;48.226;11.686;2023-03-14T05:50:41;1.50;;;1.40;;
32964;SDS011;19317;48.226;11.686;2023-03-14T05:55:32;1.50;;;1.40;;
32964;SDS011;19317;48.226;11.686;2023-03-14T06:00:22;1.60;;;1.50;;
32964;SDS011;19317;48.226;11.686;2023-03-14T06:05:13;1.40;;;1.30;;
32964;SDS011;19317;48.226;11.686;2023-03-14T06:10:03;1.50;;;1.40;;
32964;SDS011;19317;48.226;11.686;2023-03-14T06:14:55;1.60;;;1.50;;
32964;SDS011;19317;48.226;11.686;2023-03-14T06:19:45;1.60;;;1.50;;
32964;SDS011;19317;48.226;11.686;2023-03-14T06:24:36;1.40;;;1.30;;
32964;SDS011;19317;48.226;11.686;2023-03-14T06:29:26;2.70;;;1.50;;
32964;SDS011;19317;48.226;11.686;2023-03-14T06:34:17;1.50;;;1.40;;
32964;SDS011;19317;48.226;11.686;2023-03-14T06:39:07;1.60;;;1.50;;
32964;SDS011;19317;48.226;11.686;2023-03-14T06:43:57;1.50;;;1.40;;
32964;SDS011;19317;48.226;11.686;2023-03-14T06:48:48;1.70;;;1.60;;
32964;SDS011;19317;48.226;11.686;2023-03-14T06:53:38;1.40;;;1.30;;
32964;SDS011;19317;48.226;11.686;2023-03-14T06:58:29;1.50;;;1.40;;
32964;SDS011;19317;48.226;11.686;2023-03-14T07:03:20;1.40;;;1.30;;
32964;SDS011;19317;48.226;11.686;2023-03-14T07:08:10;1.60;;;1.50;;
32964;SDS011;19317;48.226;11.686;2023-03-14T07:13:01;1.50;;;1.40;;
32964;SDS011;19317;48.226;11.686;2023-03-14T07:17:51;1.53;;;1.43;;
32964;SDS011;19317;48.226;11.686;2023-03-14T07:22:42;2.67;;;1.57;;
32964;SDS011;19317;48.226;11.686;2023-03-14T07:27:32;1.60;;;1.50;;
32964;SDS011;19317;48.226;11.686;2023-03-14T07:32:23;1.60;;;1.50;;
32964;SDS011;19317;48.226;11.686;2023-03-14T07:37:14;1.73;;;1.63;;
32964;SDS011;19317;48.226;11.686;2023-03-14T07:42:04;1.60;;;1.50;;
32964;SDS011;19317;48.226;11.686;2023-03-14T07:46:55;2.43;;;1.40;;
32964;SDS011;19317;48.226;11.686;2023-03-14T07:51:48;1.50;;;1.40;;
32964;SDS011;19317;48.226;11.686;2023-03-14T07:56:39;1.60;;;1.50;;
32964;SDS011;19317;48.226;11.686;2023-03-14T08:01:29;1.60;;;1.50;;
32964;SDS011;19317;48.226;11.686;2023-03-14T08:06:20;1.60;;;1.50;;
32964;SDS011;19317;48.226;11.686;2023-03-14T08:11:10;1.57;;;1.47;;
32964;SDS011;19317;48.226;11.686;2023-03-14T08:16:01;1.60;;;1.50;;
32964;SDS011;19317;48.226;11.686;2023-03-14T08:20:51;1.50;;;1.40;;
32964;SDS011;19317;48.226;11.686;2023-03-14T08:25:42;1.60;;;1.50;;
32964;SDS011;19317;48.226;11.686;2023-03-14T08:30:32;1.70;;;1.60;;
32964;SDS011;19317;48.226;11.686;2023-03-14T08:35:23;2.20;;;1.73;;
32964;SDS011;19317;48.226;11.686;2023-03-14T08:40:14;1.70;;;1.60;;
32964;SDS011;19317;48.226;11.686;2023-03-14T08:45:05;1.60;;;1.50;;
32964;SDS011;19317;48.226;11.686;2023-03-14T08:49:56;1.50;;;1.40;;
32964;SDS011;19317;48.226;11.686;2023-03-14T08:54:47;1.60;;;1.50;;
32964;SDS011;19317;48.226;11.686;2023-03-14T08:59:38;1.60;;;1.50;;
32964;SDS011;19317;48.226;11.686;2023-03-14T09:04:29;1.90;;;1.80;;
32964;SDS011;19317;48.226;11.686;2023-03-14T09:09:20;1.60;;;1.50;;
32964;SDS011;19317;48.226;11.686;2023-03-14T09:14:11;1.67;;;1.57;;
32964;SDS011;19317;48.226;11.686;2023-03-14T09:19:01;1.70;;;1.60;;
32964;SDS011;19317;48.226;11.686;2023-03-14T09:23:52;1.70;;;1.60;;
32964;SDS011;19317;48.226;11.686;2023-03-14T09:28:42;2.40;;;1.53;;
32964;SDS011;19317;48.226;11.686;2023-03-14T09:33:33;1.70;;;1.60;;
32964;SDS011;19317;48.226;11.686;2023-03-14T09:38:24;2.00;;;1.53;;
32964;SDS011;19317;48.226;11.686;2023-03-14T09:43:14;1.63;;;1.53;;
32964;SDS011;19317;48.226;11.686;2023-03-14T09:48:08;1.60;;;1.50;;
32964;SDS011;19317;48.226;11.686;2023-03-14T09:53:08;1.60;;;1.50;;
32964;SDS011;19317;48.226;11.686;2023-03-14T09:58:04;1.80;;;1.70;;
32964;SDS011;19317;48.226;11.686;2023-03-14T10:03:15;1.70;;;1.60;;
32964;SDS011;19317;48.226;11.686;2023-03-14T10:08:12;1.90;;;1.80;;
32964;SDS011;19317;48.226;11.686;2023-03-14T10:13:17;1.67;;;1.57;;
32964;SDS011;19317;48.226;11.686;2023-03-14T10:18:11;2.00;;;1.80;;
32964;SDS011;19317;48.226;11.686;2023-03-14T10:23:07;3.57;;;2.17;;
32964;SDS011;19317;48.226;11.686;2023-03-14T10:28:23;1.83;;;1.60;;
32964;SDS011;19317;48.226;11.686;2023-03-14T10:38:14;1.70;;;1.60;;
32964;SDS011;19317;48.226;11.686;2023-03-14T10:43:11;1.70;;;1.60;;
32964;SDS011;19317;48.226;11.686;2023-03-14T10:53:04;1.73;;;1.63;;
32964;SDS011;19317;48.226;11.686;2023-03-14T10:57:54;1.80;;;1.70;;
32964;SDS011;19317;48.226;11.686;2023-03-14T11:07:38;1.50;;;1.40;;
32964;SDS011;19317;48.226;11.686;2023-03-14T11:23:13;2.73;;;1.50;;
32964;SDS011;19317;48.226;11.686;2023-03-14T11:33:07;1.60;;;1.50;;
32964;SDS011;19317;48.226;11.686;2023-03-14T11:38:26;1.50;;;1.40;;
32964;SDS011;19317;48.226;11.686;2023-03-14T11:43:28;2.53;;;1.40;;
32964;SDS011;19317;48.226;11.686;2023-03-14T11:48:39;1.40;;;1.30;;
32964;SDS011;19317;48.226;11.686;2023-03-14T11:58:30;1.50;;;1.40;;
32964;SDS011;19317;48.226;11.686;2023-03-14T12:08:27;1.60;;;1.50;;
32964;SDS011;19317;48.226;11.686;2023-03-14T12:13:33;1.53;;;1.43;;
32964;SDS011;19317;48.226;11.686;2023-03-14T12:18:28;1.50;;;1.40;;
32964;SDS011;19317;48.226;11.686;2023-03-14T12:23:21;1.33;;;1.23;;
32964;SDS011;19317;48.226;11.686;2023-03-14T12:28:16;1.30;;;1.20;;
32964;SDS011;19317;48.226;11.686;2023-03-14T12:37:59;1.40;;;1.30;;
32964;SDS011;19317;48.226;11.686;2023-03-14T12:43:03;1.50;;;1.40;;
32964;SDS011;19317;48.226;11.686;2023-03-14T12:48:22;1.60;;;1.50;;
32964;SDS011;19317;48.226;11.686;2023-03-14T12:58:34;1.43;;;1.33;;
32964;SDS011;19317;48.226;11.686;2023-03-14T13:08:52;1.60;;;1.50;;
32964;SDS011;19317;48.226;11.686;2023-03-14T13:13:47;1.50;;;1.40;;
32964;SDS011;19317;48.226;11.686;2023-03-14T13:18:43;2.23;;;1.60;;
32964;SDS011;19317;48.226;11.686;2023-03-14T13:23:41;1.50;;;1.40;;
32964;SDS011;19317;48.226;11.686;2023-03-14T13:28:45;1.40;;;1.30;;
32964;SDS011;19317;48.226;11.686;2023-03-14T13:33:35;1.50;;;1.40;;
32964;SDS011;19317;48.226;11.686;2023-03-14T13:38:27;1.60;;;1.50;;
32964;SDS011;19317;48.226;11.686;2023-03-14T13:43:20;1.50;;;1.40;;
32964;SDS011;19317;48.226;11.686;2023-03-14T13:48:17;1.50;;;1.40;;
32964;SDS011;19317;48.226;11.686;2023-03-14T13:53:10;1.60;;;1.50;;
32964;SDS011;19317;48.226;11.686;2023-03-14T13:58:01;1.50;;;1.40;;
32964;SDS011;19317;48.226;11.686;2023-03-14T14:02:52;1.50;;;1.40;;
32964;SDS011;19317;48.226;11.686;2023-03-14T14:07:50;1.50;;;1.40;;
32964;SDS011;19317;48.226;11.686;2023-03-14T14:17:54;1.60;;;1.50;;
32964;SDS011;19317;48.226;11.686;2023-03-14T14:22:48;1.50;;;1.40;;
32964;SDS011;19317;48.226;11.686;2023-03-14T14:27:41;1.70;;;1.60;;
32964;SDS011;19317;48.226;11.686;2023-03-14T14:32:39;1.53;;;1.43;;
32964;SDS011;19317;48.226;11.686;2023-03-14T14:37:31;1.70;;;1.53;;
32964;SDS011;19317;48.226;11.686;2023-03-14T14:42:25;1.60;;;1.50;;
32964;SDS011;19317;48.226;11.686;2023-03-14T14:47:20;1.60;;;1.50;;
32964;SDS011;19317;48.226;11.686;2023-03-14T14:52:14;1.60;;;1.50;;
32964;SDS011;19317;48.226;11.686;2023-03-14T14:57:28;1.70;;;1.60;;
32964;SDS011;19317;48.226;11.686;2023-03-14T15:07:43;3.70;;;1.60;;
32964;SDS011;19317;48.226;11.686;2023-03-14T15:12:34;1.50;;;1.40;;
32964;SDS011;19317;48.226;11.686;2023-03-14T15:17:24;1.43;;;1.33;;
32964;SDS011;19317;48.226;11.686;2023-03-14T15:22:15;1.73;;;1.63;;
32964;SDS011;19317;48.226;11.686;2023-03-14T15:27:08;1.50;;;1.40;;
32964;SDS011;19317;48.226;11.686;2023-03-14T15:32:03;1.70;;;1.60;;
32964;SDS011;19317;48.226;11.686;2023-03-14T15:36:54;1.70;;;1.60;;
32964;SDS011;19317;48.226;11.686;2023-03-14T15:41:44;1.60;;;1.50;;
32964;SDS011;19317;48.226;11.686;2023-03-14T15:46:35;1.40;;;1.30;;
32964;SDS011;19317;48.226;11.686;2023-03-14T15:51:25;1.67;;;1.57;;
32964;SDS011;19317;48.226;11.686;2023-03-14T15:56:16;1.80;;;1.70;;
32964;SDS011;19317;48.226;11.686;2023-03-14T16:01:08;2.30;;;2.10;;
32964;SDS011;19317;48.226;11.686;2023-03-14T16:05:58;1.50;;;1.40;;
32964;SDS011;19317;48.226;11.686;2023-03-14T16:10:49;1.50;;;1.40;;
32964;SDS011;19317;48.226;11.686;2023-03-14T16:15:39;1.80;;;1.70;;
32964;SDS011;19317;48.226;11.686;2023-03-14T16:20:30;1.70;;;1.60;;
32964;SDS011;19317;48.226;11.686;2023-03-14T16:25:20;1.70;;;1.60;;
32964;SDS011;19317;48.226;11.686;2023-03-14T16:30:12;1.60;;;1.50;;
32964;SDS011;19317;48.226;11.686;2023-03-14T16:35:03;1.80;;;1.70;;
32964;SDS011;19317;48.226;11.686;2023-03-14T16:39:54;1.50;;;1.40;;
32964;SDS011;19317;48.226;11.686;2023-03-14T16:44:44;1.70;;;1.60;;
32964;SDS011;19317;48.226;11.686;2023-03-14T16:49:35;2.33;;;1.73;;
32964;SDS011;19317;48.226;11.686;2023-03-14T16:54:25;1.67;;;1.57;;
32964;SDS011;19317;48.226;11.686;2023-03-14T16:59:16;1.53;;;1.43;;
32964;SDS011;19317;48.226;11.686;2023-03-14T17:04:06;1.60;;;1.50;;
32964;SDS011;19317;48.226;11.686;2023-03-14T17:08:57;1.70;;;1.60;;
32964;SDS011;19317;48.226;11.686;2023-03-14T17:13:48;1.70;;;1.60;;
32964;SDS011;19317;48.226;11.686;2023-03-14T17:18:38;1.70;;;1.60;;
32964;SDS011;19317;48.226;11.686;2023-03-14T17:23:29;1.63;;;1.47;;
32964;SDS011;19317;48.226;11.686;2023-03-14T17:28:21;1.60;;;1.50;;
32964;SDS011;19317;48.226;11.686;2023-03-14T17:33:13;2.10;;;1.90;;
32964;SDS011;19317;48.226;11.686;2023-03-14T17:38:03;1.80;;;1.70;;
32964;SDS011;19317;48.226;11.686;2023-03-14T17:42:54;1.60;;;1.50;;
32964;SDS011;19317;48.226;11.686;2023-03-14T17:47:45;1.57;;;1.47;;
32964;SDS011;19317;48.226;11.686;2023-03-14T17:52:36;1.60;;;1.50;;
32964;SDS011;19317;48.226;11.686;2023-03-14T17:57:27;1.57;;;1.47;;
32964;SDS011;19317;48.226;11.686;2023-03-14T18:02:19;2.07;;;1.70;;
32964;SDS011;19317;48.226;11.686;2023-03-14T18:07:10;1.80;;;1.70;;
32964;SDS011;19317;48.226;11.686;2023-03-14T18:12:01;2.53;;;1.80;;
32964;SDS011;19317;48.226;11.686;2023-03-14T18:16:52;7.13;;;2.03;;
32964;SDS011;19317;48.226;11.686;2023-03-14T18:21:42;2.07;;;1.83;;
32964;SDS011;19317;48.226;11.686;2023-03-14T18:26:33;1.90;;;1.70;;
32964;SDS011;19317;48.226;11.686;2023-03-14T18:31:24;1.60;;;1.50;;
32964;SDS011;19317;48.226;11.686;2023-03-14T18:36:14;2.10;;;2.00;;
32964;SDS011;19317;48.226;11.686;2023-03-14T18:41:05;1.93;;;1.83;;
32964;SDS011;19317;48.226;11.686;2023-03-14T18:45:56;2.33;;;1.67;;
32964;SDS011;19317;48.226;11.686;2023-03-14T18:50:48;2.67;;;1.70;;
32964;SDS011;19317;48.226;11.686;2023-03-14T18:55:38;1.97;;;1.70;;
32964;SDS011;19317;48.226;11.686;2023-03-14T19:00:28;2.00;;;1.80;;
32964;SDS011;19317;48.226;11.686;2023-03-14T19:05:19;1.87;;;1.77;;
32964;SDS011;19317;48.226;11.686;2023-03-14T19:10:09;2.70;;;1.73;;
32964;SDS011;19317;48.226;11.686;2023-03-14T19:15:00;3.43;;;2.23;;
32964;SDS011;19317;48.226;11.686;2023-03-14T19:19:50;2.93;;;2.00;;
32964;SDS011;19317;48.226;11.686;2023-03-14T19:24:41;5.17;;;2.57;;
32964;SDS011;19317;48.226;11.686;2023-03-14T19:29:31;4.30;;;2.80;;
32964;SDS011;19317;48.226;11.686;2023-03-14T19:34:22;2.33;;;2.10;;
32964;SDS011;19317;48.226;11.686;2023-03-14T19:39:13;2.80;;;2.13;;
32964;SDS011;19317;48.226;11.686;2023-03-14T19:44:03;2.50;;;2.30;;
32964;SDS011;19317;48.226;11.686;2023-03-14T19:48:54;2.07;;;1.97;;
32964;SDS011;19317;48.226;11.686;2023-03-14T19:53:44;4.90;;;2.30;;
32964;SDS011;19317;48.226;11.686;2023-03-14T19:58:36;2.63;;;2.30;;
32964;SDS011;19317;48.226;11.686;2023-03-14T20:03:27;2.50;;;2.30;;
32964;SDS011;19317;48.226;11.686;2023-03-14T20:08:19;2.40;;;2.20;;
32964;SDS011;19317;48.226;11.686;2023-03-14T20:13:10;4.20;;;2.57;;
32964;SDS011;19317;48.226;11.686;2023-03-14T20:18:00;2.60;;;2.03;;
32964;SDS011;19317;48.226;11.686;2023-03-14T20:22:51;2.50;;;2.30;;
32964;SDS011;19317;48.226;11.686;2023-03-14T20:27:41;2.30;;;2.10;;
32964;SDS011;19317;48.226;11.686;2023-03-14T20:32:32;2.27;;;2.03;;
32964;SDS011;19317;48.226;11.686;2023-03-14T20:37:23;4.10;;;2.80;;
32964;SDS011;19317;48.226;11.686;2023-03-14T20:42:13;4.27;;;2.90;;
32964;SDS011;19317;48.226;11.686;2023-03-14T20:47:04;4.07;;;2.50;;
32964;SDS011;19317;48.226;11.686;2023-03-14T20:51:54;3.17;;;2.47;;
32964;SDS011;19317;48.226;11.686;2023-03-14T20:56:45;2.40;;;2.20;;
32964;SDS011;19317;48.226;11.686;2023-03-14T21:01:35;2.80;;;2.17;;
32964;SDS011;19317;48.226;11.686;2023-03-14T21:06:26;2.40;;;1.90;;
32964;SDS011;19317;48.226;11.686;2023-03-14T21:11:16;2.00;;;1.80;;
32964;SDS011;19317;48.226;11.686;2023-03-14T21:16:07;1.80;;;1.70;;
32964;SDS011;19317;48.226;11.686;2023-03-14T21:20:57;2.50;;;2.30;;
32964;SDS011;19317;48.226;11.686;2023-03-14T21:25:48;3.00;;;1.80;;
32964;SDS011;19317;48.226;11.686;2023-03-14T21:30:39;3.10;;;2.33;;
32964;SDS011;19317;48.226;11.686;2023-03-14T21:35:29;2.23;;;2.00;;
32964;SDS011;19317;48.226;11.686;2023-03-14T21:40:20;2.20;;;1.90;;
32964;SDS011;19317;48.226;11.686;2023-03-14T21:45:10;2.43;;;1.80;;
32964;SDS011;19317;48.226;11.686;2023-03-14T21:50:01;2.43;;;1.97;;
32964;SDS011;19317;48.226;11.686;2023-03-14T21:54:51;2.33;;;2.13;;
32964;SDS011;19317;48.226;11.686;2023-03-14T21:59:42;2.10;;;1.90;;
32964;SDS011;19317;48.226;11.686;2023-03-14T22:04:34;2.33;;;1.53;;
32964;SDS011;19317;48.226;11.686;2023-03-14T22:09:25;2.07;;;1.87;;
32964;SDS011;19317;48.226;11.686;2023-03-14T22:14:15;2.37;;;1.90;;
32964;SDS011;19317;48.226;11.686;2023-03-14T22:19:05;2.87;;;1.80;;
32964;SDS011;19317;48.226;11.686;2023-03-14T22:23:56;2.30;;;2.07;;
32964;SDS011;19317;48.226;11.686;2023-03-14T22:28:46;2.30;;;2.00;;
32964;SDS011;19317;48.226;11.686;2023-03-14T22:33:37;2.47;;;2.27;;
32964;SDS011;19317;48.226;11.686;2023-03-14T22:38:27;9.93;;;2.10;;
32964;SDS011;19317;48.226;11.686;2023-03-14T22:43:18;2.03;;;1.90;;
32964;SDS011;19317;48.226;11.686;2023-03-14T22:48:08;3.13;;;2.07;;
32964;SDS011;19317;48.226;11.686;2023-03-14T22:52:59;1.70;;;1.60;;
32964;SDS011;19317;48.226;11.686;2023-03-14T22:57:50;3.07;;;1.90;;
32964;SDS011;19317;48.226;11.686;2023-03-14T23:02:41;3.23;;;2.03;;
32964;SDS011;19317;48.226;11.686;2023-03-14T23:07:31;2.20;;;2.00;;
32964;SDS011;19317;48.226;11.686;2023-03-14T23:12:22;4.13;;;1.90;;
32964;SDS011;19317;48.226;11.686;2023-03-14T23:17:12;2.20;;;2.00;;
32964;SDS011;19317;48.226;11.686;2023-03-14T23:22:03;3.17;;;2.00;;
32964;SDS011;19317;48.226;11.686;2023-03-14T23:26:53;3.33;;;1.90;;
32964;SDS011;19317;48.226;11.686;2023-03-14T23:31:44;2.43;;;2.13;;
32964;SDS011;19317;48.226;11.686;2023-03-14T23:36:34;3.60;;;2.17;;
32964;SDS011;19317;48.226;11.686;2023-03-14T23:41:25;2.30;;;2.10;;
32964;SDS011;19317;48.226;11.686;2023-03-14T23:46:15;2.57;;;2.30;;
32964;SDS011;19317;48.226;11.686;2023-03-14T23:51:07;3.73;;;2.20;;
32964;SDS011;19317;48.226;11.686;2023-03-14T23:55:59;3.20;;;2.10;;
